sensor_id;sensor_type;location;lat;lon;timestamp;pressure;altitude;pressure_sealevel;temperature;humidity
71966;BME280;59836;52.132;5.442;2023-05-25T00:00:39;102670.88;;;11.04;82.71
71966;BME280;59836;52.132;5.442;2023-05-25T00:03:26;102672.78;;;11.04;82.81
71966;BME280;59836;52.132;5.442;2023-05-25T00:05:53;102666.13;;;11.00;82.68
71966;BME280;59836;52.132;5.442;2023-05-25T00:08:19;102661.97;;;10.97;82.81
71966;BME280;59836;52.132;5.442;2023-05-25T00:10:46;102668.72;;;10.95;83.06
71966;BME280;59836;52.132;5.442;2023-05-25T00:13:12;102672.47;;;10.93;82.88
71966;BME280;59836;52.132;5.442;2023-05-25T00:15:39;102666.19;;;10.93;83.22
71966;BME280;59836;52.132;5.442;2023-05-25T00:18:06;102659.97;;;10.92;83.18
71966;BME280;59836;52.132;5.442;2023-05-25T00:20:34;102667.06;;;10.93;83.15
71966;BME280;59836;52.132;5.442;2023-05-25T00:23:00;102673.53;;;10.92;82.91
71966;BME280;59836;52.132;5.442;2023-05-25T00:25:28;102672.09;;;10.90;82.66
71966;BME280;59836;52.132;5.442;2023-05-25T00:27:54;102684.25;;;10.87;82.70
71966;BME280;59836;52.132;5.442;2023-05-25T00:30:21;102685.50;;;10.85;83.11
71966;BME280;59836;52.132;5.442;2023-05-25T00:32:47;102686.19;;;10.80;82.78
71966;BME280;59836;52.132;5.442;2023-05-25T00:35:14;102693.13;;;10.76;82.78
71966;BME280;59836;52.132;5.442;2023-05-25T00:37:40;102692.13;;;10.70;82.80
71966;BME280;59836;52.132;5.442;2023-05-25T00:40:09;102697.78;;;10.69;82.67
71966;BME280;59836;52.132;5.442;2023-05-25T00:42:39;102697.63;;;10.63;82.93
71966;BME280;59836;52.132;5.442;2023-05-25T00:45:06;102693.25;;;10.62;83.09
71966;BME280;59836;52.132;5.442;2023-05-25T00:47:33;102690.38;;;10.57;82.82
71966;BME280;59836;52.132;5.442;2023-05-25T00:50:00;102687.50;;;10.52;82.77
71966;BME280;59836;52.132;5.442;2023-05-25T00:52:27;102685.25;;;10.49;82.82
71966;BME280;59836;52.132;5.442;2023-05-25T00:54:54;102689.47;;;10.45;83.34
71966;BME280;59836;52.132;5.442;2023-05-25T00:57:25;102694.28;;;10.43;83.15
71966;BME280;59836;52.132;5.442;2023-05-25T00:59:54;102700.16;;;10.40;83.11
71966;BME280;59836;52.132;5.442;2023-05-25T01:02:22;102695.97;;;10.37;83.25
71966;BME280;59836;52.132;5.442;2023-05-25T01:04:52;102699.13;;;10.34;82.97
71966;BME280;59836;52.132;5.442;2023-05-25T01:07:23;102706.25;;;10.28;83.18
71966;BME280;59836;52.132;5.442;2023-05-25T01:09:56;102695.66;;;10.27;83.37
71966;BME280;59836;52.132;5.442;2023-05-25T01:12:26;102703.53;;;10.28;83.41
71966;BME280;59836;52.132;5.442;2023-05-25T01:14:54;102699.41;;;10.26;83.07
71966;BME280;59836;52.132;5.442;2023-05-25T01:17:21;102707.75;;;10.24;83.30
71966;BME280;59836;52.132;5.442;2023-05-25T01:19:47;102705.28;;;10.23;83.23
71966;BME280;59836;52.132;5.442;2023-05-25T01:22:39;102709.47;;;10.18;83.54
71966;BME280;59836;52.132;5.442;2023-05-25T01:25:15;102708.63;;;10.18;83.49
71966;BME280;59836;52.132;5.442;2023-05-25T01:27:57;102710.72;;;10.16;83.39
71966;BME280;59836;52.132;5.442;2023-05-25T01:30:26;102715.72;;;10.19;84.02
71966;BME280;59836;52.132;5.442;2023-05-25T01:32:53;102706.97;;;10.17;83.93
71966;BME280;59836;52.132;5.442;2023-05-25T01:35:21;102710.72;;;10.16;84.00
71966;BME280;59836;52.132;5.442;2023-05-25T01:37:50;102706.81;;;10.12;83.72
71966;BME280;59836;52.132;5.442;2023-05-25T01:40:17;102710.72;;;10.16;84.18
71966;BME280;59836;52.132;5.442;2023-05-25T01:42:43;102704.88;;;10.19;84.12
71966;BME280;59836;52.132;5.442;2023-05-25T01:45:12;102701.56;;;10.17;83.65
71966;BME280;59836;52.132;5.442;2023-05-25T01:50:36;102713.28;;;10.11;83.86
71966;BME280;59836;52.132;5.442;2023-05-25T01:53:09;102712.47;;;10.10;83.53
71966;BME280;59836;52.132;5.442;2023-05-25T01:55:45;102727.06;;;10.09;84.11
71966;BME280;59836;52.132;5.442;2023-05-25T01:58:14;102722.69;;;10.08;83.79
71966;BME280;59836;52.132;5.442;2023-05-25T02:00:43;102723.97;;;10.06;83.79
71966;BME280;59836;52.132;5.442;2023-05-25T02:03:12;102731.88;;;10.07;83.81
71966;BME280;59836;52.132;5.442;2023-05-25T02:05:40;102730.44;;;10.04;83.47
71966;BME280;59836;52.132;5.442;2023-05-25T02:08:07;102722.13;;;9.99;83.61
71966;BME280;59836;52.132;5.442;2023-05-25T02:10:33;102730.72;;;9.96;83.69
71966;BME280;59836;52.132;5.442;2023-05-25T02:13:00;102725.13;;;9.91;83.91
71966;BME280;59836;52.132;5.442;2023-05-25T02:15:31;102723.88;;;9.87;83.95
71966;BME280;59836;52.132;5.442;2023-05-25T02:17:58;102730.56;;;9.84;83.88
71966;BME280;59836;52.132;5.442;2023-05-25T02:20:26;102727.22;;;9.82;84.45
71966;BME280;59836;52.132;5.442;2023-05-25T02:22:53;102721.00;;;9.82;83.72
71966;BME280;59836;52.132;5.442;2023-05-25T02:25:20;102718.72;;;9.79;84.02
71966;BME280;59836;52.132;5.442;2023-05-25T02:27:46;102722.91;;;9.74;83.61
71966;BME280;59836;52.132;5.442;2023-05-25T02:30:13;102721.88;;;9.75;84.21
71966;BME280;59836;52.132;5.442;2023-05-25T02:32:39;102725.38;;;9.83;83.95
71966;BME280;59836;52.132;5.442;2023-05-25T02:35:07;102724.97;;;9.79;84.03
71966;BME280;59836;52.132;5.442;2023-05-25T02:37:33;102729.34;;;9.80;83.78
71966;BME280;59836;52.132;5.442;2023-05-25T02:40:00;102726.44;;;9.75;83.49
71966;BME280;59836;52.132;5.442;2023-05-25T02:42:26;102736.47;;;9.74;83.79
71966;BME280;59836;52.132;5.442;2023-05-25T02:44:53;102726.66;;;9.73;83.53
71966;BME280;59836;52.132;5.442;2023-05-25T02:47:19;102736.66;;;9.73;83.36
71966;BME280;59836;52.132;5.442;2023-05-25T02:49:46;102731.47;;;9.71;83.67
71966;BME280;59836;52.132;5.442;2023-05-25T02:52:13;102741.53;;;9.64;83.23
71966;BME280;59836;52.132;5.442;2023-05-25T02:54:39;102735.25;;;9.64;83.78
71966;BME280;59836;52.132;5.442;2023-05-25T02:57:06;102740.47;;;9.65;83.11
71966;BME280;59836;52.132;5.442;2023-05-25T02:59:33;102730.88;;;9.63;83.20
71966;BME280;59836;52.132;5.442;2023-05-25T03:02:00;102735.91;;;9.59;83.60
71966;BME280;59836;52.132;5.442;2023-05-25T03:04:26;102737.00;;;9.51;83.14
71966;BME280;59836;52.132;5.442;2023-05-25T03:06:53;102734.94;;;9.47;83.58
71966;BME280;59836;52.132;5.442;2023-05-25T03:09:20;102735.59;;;9.42;83.14
71966;BME280;59836;52.132;5.442;2023-05-25T03:11:46;102743.28;;;9.38;83.78
71966;BME280;59836;52.132;5.442;2023-05-25T03:14:13;102737.50;;;9.35;83.51
71966;BME280;59836;52.132;5.442;2023-05-25T03:16:39;102739.16;;;9.29;83.36
71966;BME280;59836;52.132;5.442;2023-05-25T03:19:06;102747.72;;;9.26;83.81
71966;BME280;59836;52.132;5.442;2023-05-25T03:21:33;102752.06;;;9.27;84.11
71966;BME280;59836;52.132;5.442;2023-05-25T03:24:00;102750.00;;;9.29;84.56
71966;BME280;59836;52.132;5.442;2023-05-25T03:26:26;102757.69;;;9.32;84.74
71966;BME280;59836;52.132;5.442;2023-05-25T03:28:54;102762.91;;;9.34;84.53
71966;BME280;59836;52.132;5.442;2023-05-25T03:31:21;102758.53;;;9.33;85.30
71966;BME280;59836;52.132;5.442;2023-05-25T03:33:47;102754.97;;;9.39;85.09
71966;BME280;59836;52.132;5.442;2023-05-25T03:36:14;102757.03;;;9.43;85.05
71966;BME280;59836;52.132;5.442;2023-05-25T03:38:43;102758.69;;;9.44;85.51
71966;BME280;59836;52.132;5.442;2023-05-25T03:41:09;102756.59;;;9.47;85.63
71966;BME280;59836;52.132;5.442;2023-05-25T03:43:36;102759.09;;;9.48;85.12
71966;BME280;59836;52.132;5.442;2023-05-25T03:46:02;102758.69;;;9.44;84.98
71966;BME280;59836;52.132;5.442;2023-05-25T03:48:29;102754.13;;;9.45;85.26
71966;BME280;59836;52.132;5.442;2023-05-25T03:50:55;102754.72;;;9.47;85.56
71966;BME280;59836;52.132;5.442;2023-05-25T03:53:22;102748.47;;;9.47;85.19
71966;BME280;59836;52.132;5.442;2023-05-25T03:55:49;102752.41;;;9.51;85.02
71966;BME280;59836;52.132;5.442;2023-05-25T03:58:17;102754.06;;;9.52;85.34
71966;BME280;59836;52.132;5.442;2023-05-25T04:00:44;102755.13;;;9.51;84.72
71966;BME280;59836;52.132;5.442;2023-05-25T04:03:10;102758.50;;;9.46;85.01
71966;BME280;59836;52.132;5.442;2023-05-25T04:05:37;102751.19;;;9.47;85.23
71966;BME280;59836;52.132;5.442;2023-05-25T04:08:03;102758.25;;;9.48;85.50
71966;BME280;59836;52.132;5.442;2023-05-25T04:10:30;102754.94;;;9.45;85.25
71966;BME280;59836;52.132;5.442;2023-05-25T04:12:56;102764.53;;;9.41;85.84
71966;BME280;59836;52.132;5.442;2023-05-25T04:15:23;102760.16;;;9.40;85.35
71966;BME280;59836;52.132;5.442;2023-05-25T04:17:50;102764.97;;;9.38;85.87
71966;BME280;59836;52.132;5.442;2023-05-25T04:20:16;102771.59;;;9.42;86.00
71966;BME280;59836;52.132;5.442;2023-05-25T04:22:43;102769.75;;;9.43;85.57
71966;BME280;59836;52.132;5.442;2023-05-25T04:25:10;102778.50;;;9.45;85.89
71966;BME280;59836;52.132;5.442;2023-05-25T04:27:36;102777.44;;;9.46;85.80
71966;BME280;59836;52.132;5.442;2023-05-25T04:30:03;102783.06;;;9.44;85.90
71966;BME280;59836;52.132;5.442;2023-05-25T04:32:30;102783.25;;;9.50;86.02
71966;BME280;59836;52.132;5.442;2023-05-25T04:34:57;102784.91;;;9.51;86.28
71966;BME280;59836;52.132;5.442;2023-05-25T04:37:24;102789.47;;;9.57;86.31
71966;BME280;59836;52.132;5.442;2023-05-25T04:39:54;102791.13;;;9.58;86.78
71966;BME280;59836;52.132;5.442;2023-05-25T04:42:22;102788.63;;;9.63;86.65
71966;BME280;59836;52.132;5.442;2023-05-25T04:44:50;102791.94;;;9.65;86.56
71966;BME280;59836;52.132;5.442;2023-05-25T04:47:18;102783.16;;;9.70;86.86
71966;BME280;59836;52.132;5.442;2023-05-25T04:49:44;102791.69;;;9.73;87.14
71966;BME280;59836;52.132;5.442;2023-05-25T04:52:11;102790.22;;;9.78;87.16
71966;BME280;59836;52.132;5.442;2023-05-25T04:54:37;102794.38;;;9.80;87.29
71966;BME280;59836;52.132;5.442;2023-05-25T04:57:04;102803.34;;;9.81;87.86
71966;BME280;59836;52.132;5.442;2023-05-25T04:59:31;102811.47;;;9.81;88.16
71966;BME280;59836;52.132;5.442;2023-05-25T05:01:58;102809.38;;;9.83;88.36
71966;BME280;59836;52.132;5.442;2023-05-25T05:04:24;102810.19;;;9.90;88.13
71966;BME280;59836;52.132;5.442;2023-05-25T05:06:51;102806.00;;;9.94;88.32
71966;BME280;59836;52.132;5.442;2023-05-25T05:09:17;102813.88;;;10.02;88.45
71966;BME280;59836;52.132;5.442;2023-05-25T05:11:44;102823.44;;;10.05;88.45
71966;BME280;59836;52.132;5.442;2023-05-25T05:14:11;102824.22;;;10.12;88.10
71966;BME280;59836;52.132;5.442;2023-05-25T05:16:37;102816.28;;;10.17;88.13
71966;BME280;59836;52.132;5.442;2023-05-25T05:19:04;102812.91;;;10.22;88.26
71966;BME280;59836;52.132;5.442;2023-05-25T05:21:30;102819.13;;;10.29;87.99
71966;BME280;59836;52.132;5.442;2023-05-25T05:23:57;102819.28;;;10.34;87.90
71966;BME280;59836;52.132;5.442;2023-05-25T05:26:23;102818.44;;;10.41;88.39
71966;BME280;59836;52.132;5.442;2023-05-25T05:28:50;102816.13;;;10.44;88.31
71966;BME280;59836;52.132;5.442;2023-05-25T05:31:17;102827.38;;;10.48;88.51
71966;BME280;59836;52.132;5.442;2023-05-25T05:33:45;102828.59;;;10.52;88.74
71966;BME280;59836;52.132;5.442;2023-05-25T05:36:11;102834.81;;;10.59;88.57
71966;BME280;59836;52.132;5.442;2023-05-25T05:38:37;102837.44;;;10.66;88.76
71966;BME280;59836;52.132;5.442;2023-05-25T05:41:06;102834.09;;;10.71;88.98
71966;BME280;59836;52.132;5.442;2023-05-25T05:43:40;102833.84;;;10.72;88.91
71966;BME280;59836;52.132;5.442;2023-05-25T05:46:08;102835.91;;;10.77;88.67
71966;BME280;59836;52.132;5.442;2023-05-25T05:48:36;102838.81;;;10.82;88.97
71966;BME280;59836;52.132;5.442;2023-05-25T05:51:06;102845.66;;;10.85;89.06
71966;BME280;59836;52.132;5.442;2023-05-25T05:53:32;102841.25;;;10.90;88.90
71966;BME280;59836;52.132;5.442;2023-05-25T05:56:01;102844.94;;;10.96;88.60
71966;BME280;59836;52.132;5.442;2023-05-25T05:58:28;102851.13;;;11.03;88.52
71966;BME280;59836;52.132;5.442;2023-05-25T06:00:55;102852.16;;;11.09;88.74
71966;BME280;59836;52.132;5.442;2023-05-25T06:03:22;102855.22;;;11.13;88.60
71966;BME280;59836;52.132;5.442;2023-05-25T06:05:49;102859.38;;;11.15;88.46
71966;BME280;59836;52.132;5.442;2023-05-25T06:08:15;102867.69;;;11.20;89.11
71966;BME280;59836;52.132;5.442;2023-05-25T06:10:42;102864.75;;;11.22;88.24
71966;BME280;59836;52.132;5.442;2023-05-25T06:13:08;102871.16;;;11.28;88.85
71966;BME280;59836;52.132;5.442;2023-05-25T06:15:35;102870.50;;;11.32;88.32
71966;BME280;59836;52.132;5.442;2023-05-25T06:18:01;102865.88;;;11.33;88.04
71966;BME280;59836;52.132;5.442;2023-05-25T06:20:28;102870.88;;;11.36;88.04
71966;BME280;59836;52.132;5.442;2023-05-25T06:22:54;102868.56;;;11.40;88.00
71966;BME280;59836;52.132;5.442;2023-05-25T06:25:21;102868.09;;;11.43;87.73
71966;BME280;59836;52.132;5.442;2023-05-25T06:27:47;102867.88;;;11.44;88.11
71966;BME280;59836;52.132;5.442;2023-05-25T06:30:14;102876.16;;;11.49;87.66
71966;BME280;59836;52.132;5.442;2023-05-25T06:32:41;102872.78;;;11.54;87.55
71966;BME280;59836;52.132;5.442;2023-05-25T06:35:08;102867.28;;;11.61;87.38
71966;BME280;59836;52.132;5.442;2023-05-25T06:37:38;102873.91;;;11.65;87.42
71966;BME280;59836;52.132;5.442;2023-05-25T06:40:05;102874.06;;;11.70;87.47
71966;BME280;59836;52.132;5.442;2023-05-25T06:42:35;102883.44;;;11.74;87.59
71966;BME280;59836;52.132;5.442;2023-05-25T06:45:03;102883.34;;;11.81;87.45
71966;BME280;59836;52.132;5.442;2023-05-25T06:47:30;102884.09;;;11.88;87.35
71966;BME280;59836;52.132;5.442;2023-05-25T06:49:57;102889.47;;;11.95;87.20
71966;BME280;59836;52.132;5.442;2023-05-25T06:52:24;102881.47;;;12.00;86.77
71966;BME280;59836;52.132;5.442;2023-05-25T06:54:54;102880.19;;;12.03;86.02
71966;BME280;59836;52.132;5.442;2023-05-25T06:57:21;102875.94;;;12.07;85.97
71966;BME280;59836;52.132;5.442;2023-05-25T06:59:48;102875.88;;;12.14;85.50
71966;BME280;59836;52.132;5.442;2023-05-25T07:02:15;102878.13;;;12.17;85.45
71966;BME280;59836;52.132;5.442;2023-05-25T07:04:42;102882.50;;;12.18;85.06
71966;BME280;59836;52.132;5.442;2023-05-25T07:07:09;102892.44;;;12.24;85.19
71966;BME280;59836;52.132;5.442;2023-05-25T07:09:37;102889.88;;;12.29;85.11
71966;BME280;59836;52.132;5.442;2023-05-25T07:12:03;102900.69;;;12.36;84.60
71966;BME280;59836;52.132;5.442;2023-05-25T07:14:36;102893.47;;;12.42;84.35
71966;BME280;59836;52.132;5.442;2023-05-25T07:17:02;102896.31;;;12.47;84.67
71966;BME280;59836;52.132;5.442;2023-05-25T07:19:29;102901.91;;;12.52;84.80
71966;BME280;59836;52.132;5.442;2023-05-25T07:21:55;102908.53;;;12.56;83.82
71966;BME280;59836;52.132;5.442;2023-05-25T07:24:22;102896.84;;;12.55;83.58
71966;BME280;59836;52.132;5.442;2023-05-25T07:26:48;102901.56;;;12.60;83.07
71966;BME280;59836;52.132;5.442;2023-05-25T07:29:15;102900.03;;;12.64;83.05
71966;BME280;59836;52.132;5.442;2023-05-25T07:31:42;102898.31;;;12.70;82.82
71966;BME280;59836;52.132;5.442;2023-05-25T07:34:08;102903.03;;;12.75;82.96
71966;BME280;59836;52.132;5.442;2023-05-25T07:36:35;102902.69;;;12.83;82.92
71966;BME280;59836;52.132;5.442;2023-05-25T07:39:01;102907.22;;;12.89;82.35
71966;BME280;59836;52.132;5.442;2023-05-25T07:41:28;102906.16;;;12.90;82.30
71966;BME280;59836;52.132;5.442;2023-05-25T07:43:54;102904.84;;;12.93;81.92
71966;BME280;59836;52.132;5.442;2023-05-25T07:46:21;102915.50;;;12.94;81.96
71966;BME280;59836;52.132;5.442;2023-05-25T07:48:50;102912.78;;;12.94;81.56
71966;BME280;59836;52.132;5.442;2023-05-25T07:51:17;102919.75;;;12.90;81.41
71966;BME280;59836;52.132;5.442;2023-05-25T07:53:44;102922.50;;;12.90;81.24
71966;BME280;59836;52.132;5.442;2023-05-25T07:56:10;102915.97;;;12.91;81.25
71966;BME280;59836;52.132;5.442;2023-05-25T07:58:37;102923.69;;;12.94;81.06
71966;BME280;59836;52.132;5.442;2023-05-25T08:01:03;102927.81;;;12.97;81.35
71966;BME280;59836;52.132;5.442;2023-05-25T08:03:29;102929.25;;;12.99;81.19
71966;BME280;59836;52.132;5.442;2023-05-25T08:06:14;102932.09;;;13.05;81.18
71966;BME280;59836;52.132;5.442;2023-05-25T08:08:40;102934.84;;;13.05;79.95
71966;BME280;59836;52.132;5.442;2023-05-25T08:11:10;102945.47;;;13.06;79.16
71966;BME280;59836;52.132;5.442;2023-05-25T08:13:37;102951.19;;;13.05;79.33
71966;BME280;59836;52.132;5.442;2023-05-25T08:16:04;102946.31;;;13.07;79.43
71966;BME280;59836;52.132;5.442;2023-05-25T08:18:31;102935.19;;;13.08;79.41
71966;BME280;59836;52.132;5.442;2023-05-25T08:20:57;102940.16;;;13.11;78.79
71966;BME280;59836;52.132;5.442;2023-05-25T08:23:23;102943.47;;;13.13;78.54
71966;BME280;59836;52.132;5.442;2023-05-25T08:25:50;102949.53;;;13.16;78.07
71966;BME280;59836;52.132;5.442;2023-05-25T08:28:17;102947.16;;;13.19;78.08
71966;BME280;59836;52.132;5.442;2023-05-25T08:30:44;102949.66;;;13.21;78.15
71966;BME280;59836;52.132;5.442;2023-05-25T08:33:11;102954.38;;;13.25;78.77
71966;BME280;59836;52.132;5.442;2023-05-25T08:35:38;102962.19;;;13.34;78.54
71966;BME280;59836;52.132;5.442;2023-05-25T08:38:06;102954.63;;;13.36;77.86
71966;BME280;59836;52.132;5.442;2023-05-25T08:40:32;102953.09;;;13.40;77.57
71966;BME280;59836;52.132;5.442;2023-05-25T08:42:59;102961.88;;;13.42;77.42
71966;BME280;59836;52.132;5.442;2023-05-25T08:45:25;102948.84;;;13.44;77.53
71966;BME280;59836;52.132;5.442;2023-05-25T08:47:59;102950.88;;;13.49;77.52
71966;BME280;59836;52.132;5.442;2023-05-25T08:50:26;102948.50;;;13.52;76.93
71966;BME280;59836;52.132;5.442;2023-05-25T08:52:56;102935.81;;;13.58;77.41
71966;BME280;59836;52.132;5.442;2023-05-25T08:55:29;102955.63;;;13.65;77.23
71966;BME280;59836;52.132;5.442;2023-05-25T08:58:19;102938.06;;;13.73;76.04
71966;BME280;59836;52.132;5.442;2023-05-25T09:01:01;102948.25;;;13.78;76.33
71966;BME280;59836;52.132;5.442;2023-05-25T09:03:29;102955.72;;;13.82;75.43
71966;BME280;59836;52.132;5.442;2023-05-25T09:05:59;102942.78;;;13.90;74.51
71966;BME280;59836;52.132;5.442;2023-05-25T09:08:26;102938.25;;;13.95;74.35
71966;BME280;59836;52.132;5.442;2023-05-25T09:10:54;102941.31;;;13.99;74.71
71966;BME280;59836;52.132;5.442;2023-05-25T09:13:21;102941.91;;;14.01;75.60
71966;BME280;59836;52.132;5.442;2023-05-25T09:15:49;102944.16;;;14.04;74.96
71966;BME280;59836;52.132;5.442;2023-05-25T09:18:16;102948.19;;;14.01;74.50
71966;BME280;59836;52.132;5.442;2023-05-25T09:20:42;102948.19;;;14.01;74.60
71966;BME280;59836;52.132;5.442;2023-05-25T09:23:13;102942.63;;;14.08;74.47
71966;BME280;59836;52.132;5.442;2023-05-25T09:25:40;102945.66;;;14.12;72.97
71966;BME280;59836;52.132;5.442;2023-05-25T09:28:07;102943.91;;;14.17;72.59
71966;BME280;59836;52.132;5.442;2023-05-25T09:30:51;102938.44;;;14.17;72.80
71966;BME280;59836;52.132;5.442;2023-05-25T09:33:18;102942.81;;;14.19;72.64
71966;BME280;59836;52.132;5.442;2023-05-25T09:35:45;102935.72;;;14.17;72.07
71966;BME280;59836;52.132;5.442;2023-05-25T09:38:13;102933.09;;;14.23;72.39
71966;BME280;59836;52.132;5.442;2023-05-25T09:40:41;102936.13;;;14.26;72.62
71966;BME280;59836;52.132;5.442;2023-05-25T09:43:08;102929.81;;;14.38;71.07
71966;BME280;59836;52.132;5.442;2023-05-25T09:45:34;102931.88;;;14.47;71.40
71966;BME280;59836;52.132;5.442;2023-05-25T09:48:05;102940.66;;;14.50;71.32
71966;BME280;59836;52.132;5.442;2023-05-25T09:50:32;102934.47;;;14.54;71.42
71966;BME280;59836;52.132;5.442;2023-05-25T09:53:01;102933.63;;;14.54;70.91
71966;BME280;59836;52.132;5.442;2023-05-25T09:55:28;102929.84;;;14.55;71.57
71966;BME280;59836;52.132;5.442;2023-05-25T09:58:15;102940.28;;;14.58;71.26
71966;BME280;59836;52.132;5.442;2023-05-25T10:00:41;102940.53;;;14.56;70.87
71966;BME280;59836;52.132;5.442;2023-05-25T10:03:08;102938.03;;;14.55;70.90
71966;BME280;59836;52.132;5.442;2023-05-25T10:05:39;102933.63;;;14.54;70.96
71966;BME280;59836;52.132;5.442;2023-05-25T10:08:07;102938.88;;;14.55;70.49
71966;BME280;59836;52.132;5.442;2023-05-25T10:10:36;102936.97;;;14.56;70.37
71966;BME280;59836;52.132;5.442;2023-05-25T10:13:04;102932.34;;;14.56;69.47
71966;BME280;59836;52.132;5.442;2023-05-25T10:15:32;102936.56;;;14.64;69.52
71966;BME280;59836;52.132;5.442;2023-05-25T10:18:00;102938.91;;;14.72;68.05
71966;BME280;59836;52.132;5.442;2023-05-25T10:20:29;102933.56;;;14.78;68.62
71966;BME280;59836;52.132;5.442;2023-05-25T10:23:04;102939.84;;;14.78;68.71
71966;BME280;59836;52.132;5.442;2023-05-25T10:25:39;102939.59;;;14.80;68.75
71966;BME280;59836;52.132;5.442;2023-05-25T10:30:44;102942.41;;;14.85;69.68
71966;BME280;59836;52.132;5.442;2023-05-25T10:33:11;102937.03;;;14.90;68.78
71966;BME280;59836;52.132;5.442;2023-05-25T10:35:38;102946.91;;;14.91;68.80
71966;BME280;59836;52.132;5.442;2023-05-25T10:38:25;102945.81;;;14.92;69.03
71966;BME280;59836;52.132;5.442;2023-05-25T10:40:53;102953.53;;;14.95;69.35
71966;BME280;59836;52.132;5.442;2023-05-25T10:43:19;102947.56;;;14.98;68.55
71966;BME280;59836;52.132;5.442;2023-05-25T10:45:47;102941.03;;;14.99;68.63
71966;BME280;59836;52.132;5.442;2023-05-25T10:48:16;102944.34;;;15.01;69.18
71966;BME280;59836;52.132;5.442;2023-05-25T10:50:49;102948.47;;;15.04;68.21
71966;BME280;59836;52.132;5.442;2023-05-25T10:53:17;102940.03;;;15.05;68.04
71966;BME280;59836;52.132;5.442;2023-05-25T10:58:22;102946.31;;;15.06;67.41
71966;BME280;59836;52.132;5.442;2023-05-25T11:00:59;102942.28;;;15.09;67.93
71966;BME280;59836;52.132;5.442;2023-05-25T11:09:03;102950.78;;;15.12;65.54
71966;BME280;59836;52.132;5.442;2023-05-25T11:14:20;102933.50;;;15.07;64.32
71966;BME280;59836;52.132;5.442;2023-05-25T11:24:47;102940.44;;;15.14;66.57
71966;BME280;59836;52.132;5.442;2023-05-25T11:27:14;102943.50;;;15.18;66.74
71966;BME280;59836;52.132;5.442;2023-05-25T11:29:40;102943.00;;;15.21;67.38
71966;BME280;59836;52.132;5.442;2023-05-25T11:32:11;102949.63;;;15.25;66.71
71966;BME280;59836;52.132;5.442;2023-05-25T11:34:41;102954.25;;;15.25;67.25
71966;BME280;59836;52.132;5.442;2023-05-25T11:37:14;102955.59;;;15.22;66.82
71966;BME280;59836;52.132;5.442;2023-05-25T11:39:45;102948.47;;;15.21;66.79
71966;BME280;59836;52.132;5.442;2023-05-25T11:42:13;102943.50;;;15.18;66.45
71966;BME280;59836;52.132;5.442;2023-05-25T11:44:40;102938.03;;;15.18;66.39
71966;BME280;59836;52.132;5.442;2023-05-25T11:47:08;102939.69;;;15.19;66.95
71966;BME280;59836;52.132;5.442;2023-05-25T11:49:42;102938.63;;;15.20;66.35
71966;BME280;59836;52.132;5.442;2023-05-25T11:52:13;102939.44;;;15.20;66.50
71966;BME280;59836;52.132;5.442;2023-05-25T11:54:40;102940.28;;;15.21;66.25
71966;BME280;59836;52.132;5.442;2023-05-25T11:57:18;102938.34;;;15.22;66.24
71966;BME280;59836;52.132;5.442;2023-05-25T11:59:52;102928.28;;;15.22;65.85
71966;BME280;59836;52.132;5.442;2023-05-25T12:02:20;102939.19;;;15.22;66.21
71966;BME280;59836;52.132;5.442;2023-05-25T12:04:59;102930.50;;;15.25;66.34
71966;BME280;59836;52.132;5.442;2023-05-25T12:07:30;102923.97;;;15.26;66.41
71966;BME280;59836;52.132;5.442;2023-05-25T12:10:07;102926.78;;;15.31;66.95
71966;BME280;59836;52.132;5.442;2023-05-25T12:12:39;102923.53;;;15.34;66.11
71966;BME280;59836;52.132;5.442;2023-05-25T12:15:08;102919.72;;;15.35;65.37
71966;BME280;59836;52.132;5.442;2023-05-25T12:17:35;102923.06;;;15.43;65.92
71966;BME280;59836;52.132;5.442;2023-05-25T12:20:02;102911.78;;;15.56;65.45
71966;BME280;59836;52.132;5.442;2023-05-25T12:22:31;102911.34;;;15.64;64.96
71966;BME280;59836;52.132;5.442;2023-05-25T12:24:57;102910.41;;;15.76;64.20
71966;BME280;59836;52.132;5.442;2023-05-25T12:27:24;102919.25;;;15.83;64.18
71966;BME280;59836;52.132;5.442;2023-05-25T12:29:51;102916.88;;;15.87;62.68
71966;BME280;59836;52.132;5.442;2023-05-25T12:32:18;102927.47;;;15.83;62.70
71966;BME280;59836;52.132;5.442;2023-05-25T12:34:45;102918.09;;;15.79;62.25
71966;BME280;59836;52.132;5.442;2023-05-25T12:37:19;102922.19;;;15.76;63.02
71966;BME280;59836;52.132;5.442;2023-05-25T12:39:47;102920.53;;;15.75;63.03
71966;BME280;59836;52.132;5.442;2023-05-25T12:42:14;102921.03;;;15.72;63.69
71966;BME280;59836;52.132;5.442;2023-05-25T12:44:43;102937.13;;;15.69;64.18
71966;BME280;59836;52.132;5.442;2023-05-25T12:49:46;102935.03;;;15.76;63.94
71966;BME280;59836;52.132;5.442;2023-05-25T12:54:57;102918.16;;;15.84;63.20
71966;BME280;59836;52.132;5.442;2023-05-25T12:57:33;102918.16;;;15.84;62.86
71966;BME280;59836;52.132;5.442;2023-05-25T13:00:00;102919.25;;;15.83;62.55
71966;BME280;59836;52.132;5.442;2023-05-25T13:02:26;102914.06;;;15.82;63.33
71966;BME280;59836;52.132;5.442;2023-05-25T13:04:53;102919.53;;;15.82;63.95
71966;BME280;59836;52.132;5.442;2023-05-25T13:07:19;102920.34;;;15.82;63.25
71966;BME280;59836;52.132;5.442;2023-05-25T13:09:47;102920.28;;;15.77;63.13
71966;BME280;59836;52.132;5.442;2023-05-25T13:12:14;102916.97;;;15.75;62.72
71966;BME280;59836;52.132;5.442;2023-05-25T13:14:40;102915.31;;;15.74;62.86
71966;BME280;59836;52.132;5.442;2023-05-25T13:17:07;102908.19;;;15.73;63.02
71966;BME280;59836;52.132;5.442;2023-05-25T13:19:33;102897.22;;;15.73;63.64
71966;BME280;59836;52.132;5.442;2023-05-25T13:22:00;102898.72;;;15.81;63.19
71966;BME280;59836;52.132;5.442;2023-05-25T13:24:27;102891.88;;;15.83;62.70
71966;BME280;59836;52.132;5.442;2023-05-25T13:26:53;102894.13;;;15.86;62.15